Accueil
METAR-TAF:

METAR-TAF

Aéroports :

Troyes, France

Aéroport de Troyes - Barberey

latitude: 48-20N, longitude: 004-01E, altitude: 118 m

Observation

Le bulletin a été fait il y a 39 minutes, à 15:00 UTC
Vent 9 kt de ouest, variant entre sud-ouest et ouest/nord-ouest
Température 26°C
Humidité 45%
Pression 1019 hPa
Visibilité 10 km ou plus
pas de nuages en-dessous de 1500 mètres et pas de cumulonimbus.

METAR: LFQB 231500Z AUTO 26009KT 220V290 CAVOK 26/13 Q1019

Heure: 17:39 (15:39 UTC)


TAF: absent

Observations et prévisions météorologiques de plus de 4000 aéroports (messages METAR et TAF).

Les stations disponibles sont représentées par des disques jaunes et rouges sur la carte.

Passer la souris dessus pour voir le nom de la station.

Cliquer dessus pour voir les observations et prévisions météorologiques.

Pour changer de carte: cliquez sur les boutons verts avec une croix noire pour zoomer, sur le bouton vert avec un tiret pour effectuer un zoom arrière, ou sur les flèches vertes pour les cartes adjacentes.


METAR-TAF: